createdAt,value
2018-07-13T00:01:44.503Z,9.70
2018-07-13T00:04:13.130Z,10.03
2018-07-13T00:06:41.760Z,10.33
2018-07-13T00:09:12.863Z,9.73
2018-07-13T00:11:42.870Z,10.00
2018-07-13T00:14:20.554Z,9.40
2018-07-13T00:16:50.558Z,9.50
2018-07-13T00:19:19.709Z,10.20
2018-07-13T00:21:48.387Z,10.57
2018-07-13T00:24:17.192Z,11.47
2018-07-13T00:26:46.007Z,12.70
2018-07-13T00:29:14.826Z,12.60
2018-07-13T00:31:44.148Z,12.33
2018-07-13T00:34:12.894Z,12.00
2018-07-13T00:36:41.474Z,14.13
2018-07-13T00:39:11.985Z,14.07
2018-07-13T00:41:40.993Z,13.90
2018-07-13T00:44:09.956Z,14.53
2018-07-13T00:46:38.715Z,15.57
2018-07-13T00:49:08.306Z,14.93
2018-07-13T00:51:36.938Z,14.20
2018-07-13T00:54:05.964Z,15.70
2018-07-13T00:56:34.563Z,16.23
2018-07-13T00:59:03.385Z,16.93
2018-07-13T01:01:32.101Z,17.57
2018-07-13T01:04:00.738Z,18.23
2018-07-13T01:06:29.374Z,19.03
2018-07-13T01:08:57.846Z,20.13
2018-07-13T01:11:26.450Z,21.60
2018-07-13T01:13:55.132Z,20.90
2018-07-13T01:16:24.551Z,20.33
2018-07-13T01:18:53.651Z,21.40
2018-07-13T01:21:22.156Z,21.10
2018-07-13T01:23:50.748Z,24.57
2018-07-13T01:26:19.212Z,25.77
2018-07-13T01:28:47.694Z,26.87
2018-07-13T01:31:16.730Z,24.30
2018-07-13T01:33:45.234Z,25.23
2018-07-13T01:36:13.730Z,25.63
2018-07-13T01:38:42.330Z,25.73
2018-07-13T01:41:10.901Z,24.17
2018-07-13T01:43:43.463Z,26.80
2018-07-13T01:46:12.487Z,25.80
2018-07-13T01:48:42.033Z,28.60
2018-07-13T01:51:11.157Z,26.47
2018-07-13T01:53:40.800Z,32.17
2018-07-13T01:56:10.281Z,29.27
2018-07-13T01:58:38.773Z,32.33
2018-07-13T02:01:09.150Z,30.87
2018-07-13T02:03:38.629Z,32.80
2018-07-13T02:06:08.107Z,32.00
2018-07-13T02:08:36.776Z,30.53
2018-07-13T02:11:06.580Z,30.83
2018-07-13T02:13:35.136Z,33.00
2018-07-13T02:16:04.055Z,30.73
2018-07-13T02:18:32.584Z,31.93
2018-07-13T02:21:01.676Z,30.37
2018-07-13T02:23:31.236Z,29.00
2018-07-13T02:26:00.260Z,29.70
2018-07-13T02:28:29.369Z,28.77
2018-07-13T02:30:59.045Z,29.73
2018-07-13T02:33:27.719Z,27.87
2018-07-13T02:35:56.685Z,28.13
2018-07-13T02:38:26.033Z,28.87
2018-07-13T02:40:54.525Z,26.23
2018-07-13T02:43:24.034Z,26.77
2018-07-13T02:45:54.456Z,25.90
2018-07-13T02:48:24.592Z,25.37
2018-07-13T02:50:53.225Z,24.80
2018-07-13T02:53:22.317Z,25.53
2018-07-13T02:55:50.897Z,25.00
2018-07-13T02:58:20.977Z,24.00
2018-07-13T03:00:50.858Z,22.93
2018-07-13T03:03:19.719Z,21.10
2018-07-13T03:05:49.215Z,20.67
2018-07-13T03:08:18.272Z,20.80
2018-07-13T03:10:46.831Z,20.93
2018-07-13T03:13:15.534Z,19.60
2018-07-13T03:15:44.087Z,19.07
2018-07-13T03:18:12.814Z,19.77
2018-07-13T03:20:41.675Z,19.33
2018-07-13T03:23:10.320Z,20.27
2018-07-13T03:25:39.538Z,19.40
2018-07-13T03:28:08.545Z,19.87
2018-07-13T03:30:37.140Z,19.47
2018-07-13T03:33:05.606Z,22.53
2018-07-13T03:35:34.105Z,21.43
2018-07-13T03:38:02.820Z,21.63
2018-07-13T03:40:31.504Z,22.53
2018-07-13T03:42:59.985Z,20.80
2018-07-13T03:45:28.790Z,20.80
2018-07-13T03:47:57.278Z,20.83
2018-07-13T03:50:26.189Z,22.60
2018-07-13T03:52:55.040Z,22.00
2018-07-13T03:55:24.528Z,23.13
2018-07-13T03:57:54.196Z,24.17
2018-07-13T04:00:22.802Z,24.33
2018-07-13T04:02:52.168Z,24.93
2018-07-13T04:05:20.777Z,25.57
2018-07-13T04:07:50.590Z,25.67
2018-07-13T04:10:19.166Z,24.33
2018-07-13T04:12:48.531Z,24.30
2018-07-13T04:15:18.091Z,24.10
2018-07-13T04:17:46.757Z,27.00
2018-07-13T04:20:16.470Z,27.50
2018-07-13T04:22:45.614Z,23.80
2018-07-13T04:25:15.938Z,24.30
2018-07-13T04:27:45.789Z,23.77
2018-07-13T04:30:14.859Z,26.33
2018-07-13T04:32:44.535Z,23.90
2018-07-13T04:35:14.217Z,26.03
2018-07-13T04:37:42.793Z,24.83
2018-07-13T04:40:11.336Z,25.20
2018-07-13T04:42:40.361Z,25.10
2018-07-13T04:45:08.837Z,25.13
2018-07-13T04:47:38.260Z,24.67
2018-07-13T04:50:07.349Z,30.33
2018-07-13T04:52:36.008Z,31.20
2018-07-13T04:55:04.813Z,29.80
2018-07-13T04:57:33.383Z,32.07
2018-07-13T05:00:02.061Z,33.77
2018-07-13T05:02:30.932Z,33.83
2018-07-13T05:04:59.559Z,42.33
2018-07-13T05:07:28.145Z,45.53
2018-07-13T05:09:56.888Z,49.77
2018-07-13T05:12:25.453Z,52.07
2018-07-13T05:14:54.445Z,52.17
2018-07-13T05:17:23.026Z,49.00
2018-07-13T05:19:51.524Z,53.30
2018-07-13T05:22:20.422Z,51.67
2018-07-13T05:24:50.373Z,50.00
2018-07-13T05:27:20.344Z,49.20
2018-07-13T05:29:49.091Z,52.27
2018-07-13T05:32:17.775Z,53.30
2018-07-13T05:34:46.580Z,53.37
2018-07-13T05:37:15.304Z,54.80
2018-07-13T05:39:45.333Z,50.70
2018-07-13T05:42:13.971Z,48.40
2018-07-13T05:44:43.241Z,44.63
2018-07-13T05:47:12.000Z,41.97
2018-07-13T05:49:40.694Z,44.07
2018-07-13T05:52:10.071Z,40.10
2018-07-13T05:54:38.723Z,42.87
2018-07-13T05:57:08.642Z,37.37
2018-07-13T05:59:37.495Z,32.90
2018-07-13T06:02:06.619Z,32.37
2018-07-13T06:04:35.547Z,31.50
2018-07-13T06:07:04.164Z,30.53
2018-07-13T06:09:33.426Z,28.97
2018-07-13T06:12:02.116Z,26.80
2018-07-13T06:14:31.281Z,26.47
2018-07-13T06:17:00.925Z,27.73
2018-07-13T06:19:29.532Z,26.03
2018-07-13T06:21:58.170Z,27.00
2018-07-13T06:24:26.806Z,24.60
2018-07-13T06:26:55.488Z,28.47
2018-07-13T06:29:24.178Z,30.83
2018-07-13T06:31:53.008Z,31.90
2018-07-13T06:34:23.448Z,27.17
2018-07-13T06:36:52.353Z,26.90
2018-07-13T06:39:21.901Z,27.37
2018-07-13T06:41:50.625Z,25.97
2018-07-13T06:44:19.493Z,25.27
2018-07-13T06:46:49.583Z,23.50
2018-07-13T06:49:18.952Z,25.50
2018-07-13T06:51:47.626Z,21.50
2018-07-13T06:54:16.307Z,21.10
2018-07-13T06:56:45.510Z,19.80
2018-07-13T06:59:15.719Z,20.57
2018-07-13T07:01:45.441Z,18.03
2018-07-13T07:04:24.194Z,18.17
2018-07-13T07:06:53.599Z,17.93
2018-07-13T07:09:22.754Z,19.37
2018-07-13T07:12:07.357Z,19.17
2018-07-13T07:14:35.985Z,17.27
2018-07-13T07:17:04.635Z,20.40
2018-07-13T07:19:34.126Z,18.73
2018-07-13T07:22:03.785Z,18.17
2018-07-13T07:24:32.471Z,18.63
2018-07-13T07:27:01.248Z,18.87
2018-07-13T07:29:32.329Z,19.13
2018-07-13T07:32:00.978Z,19.10
2018-07-13T07:34:30.386Z,17.50
2018-07-13T07:36:58.991Z,17.10
2018-07-13T07:39:28.339Z,19.27
2018-07-13T07:41:57.005Z,17.37
2018-07-13T07:44:25.692Z,17.07
2018-07-13T07:46:54.381Z,16.67
2018-07-13T07:49:23.241Z,15.47
2018-07-13T07:51:53.347Z,16.70
2018-07-13T07:54:22.581Z,15.10
2018-07-13T07:56:51.098Z,16.73
2018-07-13T07:59:20.937Z,17.83
2018-07-13T08:01:49.549Z,15.70
2018-07-13T08:04:18.115Z,18.67
2018-07-13T08:06:47.384Z,16.87
2018-07-13T08:09:16.011Z,17.60
2018-07-13T08:11:44.962Z,17.97
2018-07-13T08:14:14.836Z,16.73
2018-07-13T08:16:43.499Z,18.13
2018-07-13T08:19:12.983Z,16.47
2018-07-13T08:21:44.945Z,16.07
2018-07-13T08:24:19.162Z,15.77
2018-07-13T08:26:48.232Z,16.80
2018-07-13T08:29:19.017Z,16.27
2018-07-13T08:31:47.582Z,17.33
2018-07-13T08:34:16.203Z,16.93
2018-07-13T08:36:45.286Z,15.47
2018-07-13T08:39:14.186Z,15.00
2018-07-13T08:41:43.396Z,15.87
2018-07-13T08:44:12.616Z,15.70
2018-07-13T08:46:41.338Z,16.50
2018-07-13T08:49:10.066Z,15.93
2018-07-13T08:51:38.917Z,16.07
2018-07-13T08:54:07.758Z,15.73
2018-07-13T08:56:36.530Z,14.40
2018-07-13T08:59:05.349Z,15.90
2018-07-13T09:01:34.135Z,14.80
2018-07-13T09:04:02.808Z,15.33
2018-07-13T09:06:31.522Z,15.40
2018-07-13T09:09:01.273Z,14.53
2018-07-13T09:11:31.185Z,14.70
2018-07-13T09:14:01.309Z,14.10
2018-07-13T09:16:30.515Z,14.70
2018-07-13T09:19:00.220Z,14.73
2018-07-13T09:21:29.115Z,13.90
2018-07-13T09:23:58.865Z,14.70
2018-07-13T09:26:27.574Z,15.30
2018-07-13T09:28:56.316Z,13.47
2018-07-13T09:31:24.907Z,14.83
2018-07-13T09:33:53.559Z,13.53
2018-07-13T09:36:23.201Z,15.37
2018-07-13T09:38:51.807Z,14.73
2018-07-13T09:41:20.469Z,15.07
2018-07-13T09:43:49.198Z,15.63
2018-07-13T09:46:17.894Z,14.43
2018-07-13T09:48:46.853Z,15.13
2018-07-13T09:51:15.503Z,16.37
2018-07-13T09:53:44.198Z,15.07
2018-07-13T09:56:12.742Z,14.87
2018-07-13T09:58:45.029Z,15.30
2018-07-13T10:01:19.710Z,13.67
2018-07-13T10:03:50.794Z,14.07
2018-07-13T10:06:20.759Z,13.87
2018-07-13T10:08:51.077Z,15.00
2018-07-13T10:11:19.762Z,14.23
2018-07-13T10:13:49.219Z,13.90
2018-07-13T10:16:18.856Z,14.40
2018-07-13T10:18:48.593Z,13.60
2018-07-13T10:21:17.394Z,13.43
2018-07-13T10:23:46.722Z,13.00
2018-07-13T10:26:21.761Z,13.83
2018-07-13T10:28:50.666Z,15.20
2018-07-13T10:31:19.904Z,14.27
2018-07-13T10:33:50.275Z,13.13
2018-07-13T10:36:20.453Z,14.10
2018-07-13T10:38:49.223Z,14.57
2018-07-13T10:41:17.850Z,14.70
2018-07-13T10:43:47.166Z,14.90
2018-07-13T10:46:15.786Z,15.67
2018-07-13T10:48:45.334Z,15.33
2018-07-13T10:51:14.644Z,17.53
2018-07-13T10:53:43.262Z,16.43
2018-07-13T10:56:11.779Z,14.60
2018-07-13T10:58:40.990Z,16.67
2018-07-13T11:01:10.490Z,15.83
2018-07-13T11:03:39.518Z,15.57
2018-07-13T11:06:08.301Z,15.97
2018-07-13T11:08:36.900Z,15.30
2018-07-13T11:11:05.458Z,16.47
2018-07-13T11:13:34.282Z,15.60
2018-07-13T11:16:06.235Z,15.60
2018-07-13T11:18:35.598Z,16.03
2018-07-13T11:21:05.084Z,15.37
2018-07-13T11:23:33.677Z,16.27
2018-07-13T11:26:02.445Z,14.13
2018-07-13T11:28:32.009Z,14.90
2018-07-13T11:31:00.571Z,13.63
2018-07-13T11:33:30.017Z,14.10
2018-07-13T11:35:58.667Z,13.03
2018-07-13T11:38:28.226Z,12.87
2018-07-13T11:40:56.797Z,13.30
2018-07-13T11:43:25.330Z,12.90
2018-07-13T11:45:55.554Z,13.40
2018-07-13T11:48:24.205Z,12.87
2018-07-13T11:50:52.813Z,14.30
2018-07-13T11:53:21.396Z,13.75
2018-07-13T11:55:50.030Z,13.37
2018-07-13T11:58:19.682Z,14.33
2018-07-13T12:00:49.206Z,13.17
2018-07-13T12:03:18.141Z,14.27
2018-07-13T12:05:46.651Z,15.57
2018-07-13T12:08:15.539Z,14.43
2018-07-13T12:10:46.697Z,15.70
2018-07-13T12:13:15.468Z,14.93
2018-07-13T12:15:45.760Z,12.80
2018-07-13T12:18:14.330Z,14.50
2018-07-13T12:20:43.948Z,13.80
2018-07-13T12:23:12.953Z,13.32
2018-07-13T12:25:43.228Z,12.57
2018-07-13T12:28:12.056Z,14.67
2018-07-13T12:30:40.606Z,14.43
2018-07-13T12:33:09.133Z,15.03
2018-07-13T12:35:37.677Z,13.90
2018-07-13T12:38:06.572Z,14.05
2018-07-13T12:40:36.263Z,14.60
2018-07-13T12:43:04.865Z,13.43
2018-07-13T12:45:34.707Z,12.70
2018-07-13T12:48:03.486Z,12.15
2018-07-13T12:50:32.661Z,13.15
2018-07-13T12:53:01.229Z,12.37
2018-07-13T12:55:30.811Z,14.25
2018-07-13T12:57:59.279Z,12.10
2018-07-13T13:00:27.841Z,12.58
2018-07-13T13:02:56.975Z,12.23
2018-07-13T13:05:26.160Z,12.93
2018-07-13T13:07:54.751Z,11.78
2018-07-13T13:10:24.792Z,11.55
2018-07-13T13:12:53.728Z,12.15
2018-07-13T13:15:22.391Z,12.37
2018-07-13T13:17:50.934Z,12.13
2018-07-13T13:20:19.428Z,12.88
2018-07-13T13:22:48.422Z,13.15
2018-07-13T13:25:17.084Z,12.43
2018-07-13T13:27:45.568Z,12.63
2018-07-13T13:30:14.047Z,12.80
2018-07-13T13:32:42.697Z,12.28
2018-07-13T13:35:11.672Z,13.03
2018-07-13T13:37:40.890Z,12.07
2018-07-13T13:40:09.488Z,13.72
2018-07-13T13:42:39.761Z,11.65
2018-07-13T13:45:09.000Z,13.43
2018-07-13T13:47:38.012Z,12.43
2018-07-13T13:50:07.108Z,13.72
2018-07-13T13:52:38.212Z,11.83
2018-07-13T13:55:07.343Z,12.40
2018-07-13T13:57:36.335Z,12.20
2018-07-13T14:00:05.639Z,12.47
2018-07-13T14:02:34.821Z,12.37
2018-07-13T14:05:03.675Z,12.50
2018-07-13T14:07:32.710Z,12.18
2018-07-13T14:10:01.351Z,12.98
2018-07-13T14:12:31.676Z,11.40
2018-07-13T14:15:00.487Z,12.35
2018-07-13T14:17:30.078Z,11.65
2018-07-13T14:19:58.652Z,11.93
2018-07-13T14:22:27.536Z,12.80
2018-07-13T14:24:56.521Z,12.43
2018-07-13T14:27:25.929Z,12.37
2018-07-13T14:29:54.708Z,11.73
2018-07-13T14:32:23.249Z,11.30
2018-07-13T14:34:52.148Z,9.85
2018-07-13T14:37:20.734Z,9.70
2018-07-13T14:39:49.293Z,9.55
2018-07-13T14:42:17.974Z,9.43
2018-07-13T14:44:46.607Z,9.13
2018-07-13T14:47:15.984Z,8.28
2018-07-13T14:49:44.883Z,8.33
2018-07-13T14:53:19.148Z,7.67
2018-07-13T14:55:48.718Z,7.30
2018-07-13T14:58:17.489Z,6.95
2018-07-13T15:00:48.337Z,6.75
2018-07-13T15:03:17.515Z,6.75
2018-07-13T15:05:46.786Z,7.25
2018-07-13T15:08:15.973Z,6.17
2018-07-13T15:10:44.838Z,6.97
2018-07-13T15:13:13.529Z,6.17
2018-07-13T15:15:42.579Z,6.17
2018-07-13T15:18:15.676Z,5.75
2018-07-13T15:20:44.530Z,5.67
2018-07-13T15:23:13.270Z,5.65
2018-07-13T15:25:41.955Z,5.78
2018-07-13T15:28:11.558Z,5.87
2018-07-13T15:30:40.388Z,5.08
2018-07-13T15:33:08.987Z,5.65
2018-07-13T15:35:38.211Z,5.15
2018-07-13T15:38:07.024Z,5.70
2018-07-13T15:40:35.654Z,4.92
2018-07-13T15:43:04.460Z,5.17
2018-07-13T15:45:33.261Z,5.12
2018-07-13T15:48:02.926Z,4.60
2018-07-13T15:50:32.189Z,4.53
2018-07-13T15:53:01.028Z,4.83
2018-07-13T15:55:35.009Z,4.60
2018-07-13T15:58:04.093Z,4.50
2018-07-13T16:00:33.487Z,5.22
2018-07-13T16:03:04.620Z,5.20
2018-07-13T16:05:34.348Z,5.20
2018-07-13T16:08:04.654Z,5.40
2018-07-13T16:10:33.314Z,6.85
2018-07-13T16:13:02.191Z,8.35
2018-07-13T16:15:31.440Z,56.68
2018-07-13T16:18:00.249Z,9.65
2018-07-13T16:20:29.047Z,8.70
2018-07-13T16:22:57.943Z,5.45
2018-07-13T16:25:26.565Z,4.75
2018-07-13T16:27:55.284Z,6.00
2018-07-13T16:30:26.105Z,4.45
2018-07-13T16:32:55.646Z,4.65
2018-07-13T16:35:24.473Z,6.50
2018-07-13T16:37:54.050Z,7.75
2018-07-13T16:40:22.785Z,8.70
2018-07-13T16:42:51.977Z,6.67
2018-07-13T16:45:20.707Z,4.72
2018-07-13T16:47:49.342Z,4.95
2018-07-13T16:50:18.853Z,5.20
2018-07-13T16:52:47.798Z,5.50
2018-07-13T16:55:16.408Z,4.97
2018-07-13T16:57:45.253Z,4.20
2018-07-13T17:00:15.758Z,3.90
2018-07-13T17:02:44.948Z,4.12
2018-07-13T17:05:13.620Z,3.72
2018-07-13T17:07:43.046Z,3.80
2018-07-13T17:10:12.189Z,4.60
2018-07-13T17:12:40.755Z,3.80
2018-07-13T17:15:10.186Z,4.28
2018-07-13T17:17:38.737Z,4.50
2018-07-13T17:20:07.565Z,4.45
2018-07-13T17:22:37.832Z,4.60
2018-07-13T17:25:06.794Z,4.60
2018-07-13T17:27:35.608Z,4.87
2018-07-13T17:30:05.289Z,4.28
2018-07-13T17:32:33.875Z,4.35
2018-07-13T17:35:02.620Z,4.75
2018-07-13T17:37:31.780Z,4.70
2018-07-13T17:40:00.772Z,4.50
2018-07-13T17:42:30.272Z,5.20
2018-07-13T17:44:58.949Z,5.12
2018-07-13T17:47:27.993Z,5.08
2018-07-13T17:49:56.907Z,5.55
2018-07-13T17:52:25.483Z,4.85
2018-07-13T17:54:54.129Z,4.35
2018-07-13T17:57:22.669Z,4.87
2018-07-13T17:59:51.488Z,4.30
2018-07-13T18:02:20.419Z,4.45
2018-07-13T18:04:49.010Z,4.70
2018-07-13T18:07:18.021Z,5.30
2018-07-13T18:09:46.922Z,4.90
2018-07-13T18:12:15.840Z,4.78
2018-07-13T18:14:45.766Z,4.30
2018-07-13T18:17:14.646Z,4.87
2018-07-13T18:19:44.046Z,4.55
2018-07-13T18:22:13.428Z,4.90
2018-07-13T18:24:42.046Z,6.22
2018-07-13T18:27:11.529Z,5.08
2018-07-13T18:29:40.093Z,5.28
2018-07-13T18:32:08.714Z,5.15
2018-07-13T18:34:37.366Z,5.47
2018-07-13T18:37:05.958Z,4.67
2018-07-13T18:39:34.527Z,4.78
2018-07-13T18:42:04.306Z,5.10
2018-07-13T18:44:32.813Z,5.22
2018-07-13T18:47:02.855Z,5.70
2018-07-13T18:49:31.490Z,5.80
2018-07-13T18:52:00.108Z,5.72
2018-07-13T18:54:28.745Z,6.33
2018-07-13T18:56:57.872Z,7.03
2018-07-13T18:59:26.595Z,6.78
2018-07-13T19:01:55.737Z,6.72
2018-07-13T19:04:25.622Z,6.80
2018-07-13T19:06:54.414Z,6.30
2018-07-13T19:09:23.387Z,6.40
2018-07-13T19:11:52.075Z,6.83
2018-07-13T19:14:21.338Z,6.37
2018-07-13T19:16:51.634Z,6.95
2018-07-13T19:19:20.729Z,6.97
2018-07-13T19:21:49.353Z,7.10
2018-07-13T19:24:19.496Z,6.83
2018-07-13T19:26:48.561Z,7.42
2018-07-13T19:29:18.745Z,6.30
2018-07-13T19:31:50.278Z,6.05
2018-07-13T19:34:19.015Z,5.47
2018-07-13T19:36:47.972Z,6.08
2018-07-13T19:39:17.795Z,6.35
2018-07-13T19:41:47.517Z,6.47
2018-07-13T19:44:16.702Z,6.45
2018-07-13T19:46:46.609Z,6.15
2018-07-13T19:49:15.934Z,6.35
2018-07-13T19:51:45.803Z,6.40
2018-07-13T19:54:14.492Z,7.05
2018-07-13T19:56:44.042Z,6.70
2018-07-13T19:59:12.973Z,6.12
2018-07-13T20:01:43.366Z,6.53
2018-07-13T20:04:15.509Z,7.10
2018-07-13T20:06:44.013Z,7.60
2018-07-13T20:09:12.874Z,8.05
2018-07-13T20:11:45.080Z,7.43
2018-07-13T20:14:14.313Z,8.53
2018-07-13T20:16:42.971Z,8.23
2018-07-13T20:19:11.425Z,7.78
2018-07-13T20:21:40.369Z,8.75
2018-07-13T20:24:10.640Z,8.80
2018-07-13T20:26:39.541Z,8.87
2018-07-13T20:29:08.074Z,8.60
2018-07-13T20:31:38.345Z,9.05
2018-07-13T20:34:07.014Z,9.65
2018-07-13T20:36:36.520Z,8.53
2018-07-13T20:39:07.010Z,9.47
2018-07-13T20:41:35.889Z,8.80
2018-07-13T20:44:05.012Z,8.73
2018-07-13T20:46:33.696Z,8.83
2018-07-13T20:49:03.562Z,9.00
2018-07-13T20:51:34.328Z,8.55
2018-07-13T20:54:03.470Z,8.85
2018-07-13T20:56:32.174Z,8.63
2018-07-13T20:59:01.825Z,8.10
2018-07-13T21:01:31.379Z,9.07
2018-07-13T21:04:00.056Z,8.47
2018-07-13T21:06:29.906Z,7.65
2018-07-13T21:08:58.781Z,8.00
2018-07-13T21:11:27.335Z,8.73
2018-07-13T21:13:56.840Z,7.53
2018-07-13T21:16:25.454Z,8.10
2018-07-13T21:18:54.494Z,7.83
2018-07-13T21:21:25.242Z,7.97
2018-07-13T21:23:56.160Z,9.23
2018-07-13T21:26:25.216Z,8.63
2018-07-13T21:28:54.585Z,7.97
2018-07-13T21:31:23.212Z,8.20
2018-07-13T21:33:52.201Z,7.97
2018-07-13T21:36:20.805Z,8.13
2018-07-13T21:38:49.958Z,8.90
2018-07-13T21:41:18.836Z,8.03
2018-07-13T21:43:47.864Z,8.17
2018-07-13T21:46:16.870Z,8.10
2018-07-13T21:48:45.705Z,7.37
2018-07-13T21:51:14.417Z,8.10
2018-07-13T21:53:45.099Z,7.87
2018-07-13T21:56:14.909Z,7.03
2018-07-13T21:58:44.200Z,6.80
2018-07-13T22:01:14.335Z,7.00
2018-07-13T22:03:43.539Z,7.00
2018-07-13T22:06:12.225Z,7.63
2018-07-13T22:08:41.446Z,6.60
2018-07-13T22:11:11.624Z,7.10
2018-07-13T22:13:41.370Z,7.47
2018-07-13T22:16:10.746Z,7.60
2018-07-13T22:18:39.342Z,7.33
2018-07-13T22:21:08.307Z,7.60
2018-07-13T22:23:37.226Z,7.43
2018-07-13T22:26:06.654Z,6.90
2018-07-13T22:28:35.470Z,8.27
2018-07-13T22:31:03.960Z,8.17
2018-07-13T22:33:33.442Z,8.43
2018-07-13T22:36:02.540Z,7.87
2018-07-13T22:38:31.412Z,8.10
2018-07-13T22:41:00.640Z,8.03
2018-07-13T22:43:29.487Z,8.57
2018-07-13T22:45:58.543Z,8.20
2018-07-13T22:48:27.087Z,8.93
2018-07-13T22:50:55.675Z,8.73
2018-07-13T22:53:25.212Z,9.00
2018-07-13T22:55:54.221Z,8.60
2018-07-13T22:58:23.399Z,8.33
2018-07-13T23:00:51.854Z,8.40
2018-07-13T23:03:20.671Z,8.13
2018-07-13T23:05:49.209Z,8.07
2018-07-13T23:08:18.320Z,7.67
2018-07-13T23:10:46.904Z,7.27
2018-07-13T23:13:15.571Z,7.63
2018-07-13T23:15:44.058Z,7.40
2018-07-13T23:18:12.730Z,6.80
2018-07-13T23:20:42.637Z,7.40
2018-07-13T23:23:12.614Z,7.10
2018-07-13T23:25:41.239Z,6.97
2018-07-13T23:28:09.789Z,6.60
2018-07-13T23:30:39.329Z,6.70
2018-07-13T23:33:07.829Z,7.27
2018-07-13T23:35:36.476Z,6.80
2018-07-13T23:38:05.471Z,6.00
2018-07-13T23:40:37.925Z,6.50
2018-07-13T23:43:06.716Z,6.20
2018-07-13T23:45:37.299Z,6.70
2018-07-13T23:48:07.528Z,6.70
2018-07-13T23:50:36.139Z,6.67
2018-07-13T23:53:06.518Z,6.70
2018-07-13T23:55:36.306Z,6.27
2018-07-13T23:58:05.208Z,6.50
